LEPP Airport Information

Runway Information
Runway 15 Length 0 ft width 0 ft
Elevation 1468 ft Threshold 0 ft Heading 0
Runway 33 Length 0 ft Width 0 ft
Elevation 1500 ft Threshold 0 ft Heading 0
Runway 16 Length 7241 ft width 148 ft
Elevation 1468 ft Threshold 0 ft Heading 152
Runway 34 Length 7241 ft Width 148 ft
Elevation 1504 ft Threshold 984 ft Heading 332
Airport Frequencies
Type APP Name APP Frequency 118.2 MHZ
Type GND Name GND Frequency 121.7 MHZ
Type TWR Name TWR Frequency 118.2 MHZ
Airport Navaids
Type NDB Name Pamplona Frequency 422 KHZ
Type VOR-DME Name Pamplona Frequency 113550 KHZ
Type VOR-DME Name Pamplona Frequency 112300 KHZ
Airport Weather Information & NOTAM
ADDS - METARS form results

(0412 UTC 18 November 2018)
Data provider http://aviationweather.gov/metar/data/
 
METAR text: LEPP 180400Z AUTO 19007KT 8000 SCT022/// SCT028/// OVC036/// 11/09 Q1009
Conditions at: LEPP (PAMPLONA/NOAIN , ES) observed 0400 UTC 18 November 2018
Temperature: 11.0°C (52°F)
Dewpoint: 9.0°C (48°F) [RH = 87%]
Pressure (altimeter): 29.79 inches Hg (1009.0 mb)
Winds: from the S (190 degrees) at 8 MPH (7 knots; 3.6 m/s)
Visibility: 5 miles ( 8 km)
Ceiling: 3600 feet AGL
Clouds: scattered clouds at 2200 feet AGL
scattered clouds at 2800 feet AGL
overcast cloud deck at 3600 feet AGL
Weather: no significant weather observed at this time

METAR text: LEPP 180330Z AUTO 19006KT 8000 FEW023/// SCT029/// OVC036/// 12/09 Q1009
Conditions at: LEPP (PAMPLONA/NOAIN , ES) observed 0330 UTC 18 November 2018
Temperature: 12.0°C (54°F)
Dewpoint: 9.0°C (48°F) [RH = 82%]
Pressure (altimeter): 29.79 inches Hg (1009.0 mb)
Winds: from the S (190 degrees) at 7 MPH (6 knots; 3.1 m/s)
Visibility: 5 miles ( 8 km)
Ceiling: 3600 feet AGL
Clouds: few clouds at 2300 feet AGL
scattered clouds at 2900 feet AGL
overcast cloud deck at 3600 feet AGL
Weather: no significant weather observed at this time

Forecast for: LEPP (PAMPLONA/NOAIN , ES)
Text: TAF LEPP 180200Z 1803/1903 15007KT 8000 SCT018 BKN025 TX13/1815Z TN04/1903Z
Forecast period: 0300 UTC 18 November 2018 to 0300 UTC 19 November 2018
Forecast type: FROM: standard forecast or significant change
Winds: from the SSE (150 degrees) at 8 MPH (7 knots; 3.6 m/s)
Visibility: 5 miles (8 km)
Ceiling: 2500 feet AGL
Clouds: scattered clouds at 1800 feet AGL
broken clouds at 2500 feet AGL
Weather: no significant weather forecast for this period
Text: TEMPO 1803/1824 RA BKN014
Forecast period: 0300 UTC 18 November 2018 to 0000 UTC 19 November 2018
Forecast type: TEMPORARY: The following changes expected for less than half the time period
Visibility: missing
Ceiling: 1400 feet AGL
Clouds: broken clouds at 1400 feet AGL
Weather: RA  (moderate rain)
Text: PROB40
Forecast period: 0300 to 0800 UTC 18 November 2018
Forecast type: TEMPORARY: The following changes expected for less than half the time period
Visibility: 1.86 miles (2.99 km)
Ceiling: 1000 feet AGL
Clouds: broken clouds at 1000 feet AGL
Weather: -RA BR  (light rain, mist)